sensor_id;sensor_type;location;lat;lon;timestamp;pressure;altitude;pressure_sealevel;temperature;humidity
79534;BME280;68982;52.160;6.736;2023-07-29T00:00:21;100505.44;;;17.83;90.02
79534;BME280;68982;52.160;6.736;2023-07-29T00:02:47;100498.78;;;17.79;90.14
79534;BME280;68982;52.160;6.736;2023-07-29T00:05:12;100499.84;;;17.78;89.95
79534;BME280;68982;52.160;6.736;2023-07-29T00:07:37;100490.03;;;17.77;89.98
79534;BME280;68982;52.160;6.736;2023-07-29T00:10:03;100494.81;;;17.70;90.70
79534;BME280;68982;52.160;6.736;2023-07-29T00:12:29;100499.41;;;17.69;90.74
79534;BME280;68982;52.160;6.736;2023-07-29T00:14:54;100496.06;;;17.79;90.27
79534;BME280;68982;52.160;6.736;2023-07-29T00:17:20;100494.31;;;17.73;90.43
79534;BME280;68982;52.160;6.736;2023-07-29T00:19:46;100498.09;;;17.84;90.06
79534;BME280;68982;52.160;6.736;2023-07-29T00:22:11;100485.63;;;17.88;89.69
79534;BME280;68982;52.160;6.736;2023-07-29T00:24:37;100480.63;;;17.85;90.10
79534;BME280;68982;52.160;6.736;2023-07-29T00:27:02;100475.28;;;17.90;89.70
79534;BME280;68982;52.160;6.736;2023-07-29T00:29:27;100475.38;;;17.95;89.24
79534;BME280;68982;52.160;6.736;2023-07-29T00:31:53;100483.03;;;17.98;88.93
79534;BME280;68982;52.160;6.736;2023-07-29T00:34:18;100474.78;;;17.93;89.16
79534;BME280;68982;52.160;6.736;2023-07-29T00:36:45;100485.63;;;17.88;90.15
79534;BME280;68982;52.160;6.736;2023-07-29T00:39:10;100475.16;;;17.85;89.75
79534;BME280;68982;52.160;6.736;2023-07-29T00:41:36;100479.50;;;17.97;89.36
79534;BME280;68982;52.160;6.736;2023-07-29T00:44:01;100478.00;;;17.90;89.51
79534;BME280;68982;52.160;6.736;2023-07-29T00:46:28;100481.66;;;17.95;88.91
79534;BME280;68982;52.160;6.736;2023-07-29T00:48:54;100484.75;;;17.87;90.29
79534;BME280;68982;52.160;6.736;2023-07-29T00:51:19;100484.44;;;17.84;89.52
79534;BME280;68982;52.160;6.736;2023-07-29T00:53:45;100471.16;;;17.75;90.17
79534;BME280;68982;52.160;6.736;2023-07-29T00:56:10;100482.31;;;17.86;90.20
79534;BME280;68982;52.160;6.736;2023-07-29T00:58:36;100483.34;;;17.85;90.63
79534;BME280;68982;52.160;6.736;2023-07-29T01:06:29;100466.94;;;17.68;91.27
79534;BME280;68982;52.160;6.736;2023-07-29T01:09:09;100482.31;;;17.74;90.92
79534;BME280;68982;52.160;6.736;2023-07-29T01:14:19;100480.63;;;17.56;92.50
79534;BME280;68982;52.160;6.736;2023-07-29T01:16:53;100482.28;;;17.57;92.51
79534;BME280;68982;52.160;6.736;2023-07-29T01:19:43;100482.66;;;17.49;93.13
79534;BME280;68982;52.160;6.736;2023-07-29T01:22:10;100479.78;;;17.55;92.59
79534;BME280;68982;52.160;6.736;2023-07-29T01:24:36;100483.84;;;17.53;92.87
79534;BME280;68982;52.160;6.736;2023-07-29T01:27:02;100486.56;;;17.53;93.10
79534;BME280;68982;52.160;6.736;2023-07-29T01:29:30;100482.91;;;17.47;92.60
79534;BME280;68982;52.160;6.736;2023-07-29T01:32:00;100489.44;;;17.46;92.98
79534;BME280;68982;52.160;6.736;2023-07-29T01:34:32;100472.03;;;17.35;93.73
79534;BME280;68982;52.160;6.736;2023-07-29T01:37:00;100486.50;;;17.36;93.70
79534;BME280;68982;52.160;6.736;2023-07-29T01:39:29;100485.53;;;17.42;93.71
79534;BME280;68982;52.160;6.736;2023-07-29T01:41:56;100483.53;;;17.37;93.94
79534;BME280;68982;52.160;6.736;2023-07-29T01:44:22;100472.13;;;17.40;94.02
79534;BME280;68982;52.160;6.736;2023-07-29T01:46:49;100465.41;;;17.31;93.97
79534;BME280;68982;52.160;6.736;2023-07-29T01:49:15;100468.34;;;17.42;93.61
79534;BME280;68982;52.160;6.736;2023-07-29T01:51:40;100469.91;;;17.37;93.75
79534;BME280;68982;52.160;6.736;2023-07-29T01:54:05;100475.84;;;17.34;94.12
79534;BME280;68982;52.160;6.736;2023-07-29T01:56:31;100467.41;;;17.36;93.96
79534;BME280;68982;52.160;6.736;2023-07-29T01:58:56;100466.34;;;17.37;93.80
79534;BME280;68982;52.160;6.736;2023-07-29T02:01:22;100464.69;;;17.36;94.18
79534;BME280;68982;52.160;6.736;2023-07-29T02:03:47;100461.50;;;17.27;94.20
79534;BME280;68982;52.160;6.736;2023-07-29T02:06:18;100453.59;;;17.26;94.33
79534;BME280;68982;52.160;6.736;2023-07-29T02:08:43;100457.25;;;17.31;94.61
79534;BME280;68982;52.160;6.736;2023-07-29T02:11:09;100457.06;;;17.21;94.68
79534;BME280;68982;52.160;6.736;2023-07-29T02:13:34;100457.97;;;17.27;93.91
79534;BME280;68982;52.160;6.736;2023-07-29T02:16:00;100464.38;;;17.32;93.28
79534;BME280;68982;52.160;6.736;2023-07-29T02:18:25;100464.09;;;17.34;92.86
79534;BME280;68982;52.160;6.736;2023-07-29T02:20:50;100446.84;;;17.28;93.89
79534;BME280;68982;52.160;6.736;2023-07-29T02:23:16;100442.44;;;17.27;93.64
79534;BME280;68982;52.160;6.736;2023-07-29T02:25:42;100443.44;;;17.21;94.69
79534;BME280;68982;52.160;6.736;2023-07-29T02:28:08;100446.88;;;17.16;95.20
79534;BME280;68982;52.160;6.736;2023-07-29T02:30:33;100449.94;;;17.20;94.86
79534;BME280;68982;52.160;6.736;2023-07-29T02:32:58;100451.47;;;17.28;93.71
79534;BME280;68982;52.160;6.736;2023-07-29T02:35:26;100443.88;;;17.30;94.54
79534;BME280;68982;52.160;6.736;2023-07-29T02:37:51;100454.22;;;17.45;93.12
79534;BME280;68982;52.160;6.736;2023-07-29T02:40:17;100446.09;;;17.33;94.42
79534;BME280;68982;52.160;6.736;2023-07-29T02:42:42;100452.97;;;17.35;94.57
79534;BME280;68982;52.160;6.736;2023-07-29T02:45:08;100441.34;;;17.40;93.80
79534;BME280;68982;52.160;6.736;2023-07-29T02:47:36;100439.78;;;17.44;93.50
79534;BME280;68982;52.160;6.736;2023-07-29T02:50:02;100429.13;;;17.43;94.09
79534;BME280;68982;52.160;6.736;2023-07-29T02:52:28;100431.41;;;17.34;94.60
79534;BME280;68982;52.160;6.736;2023-07-29T02:54:53;100432.41;;;17.16;95.52
79534;BME280;68982;52.160;6.736;2023-07-29T02:57:19;100440.00;;;17.14;95.64
79534;BME280;68982;52.160;6.736;2023-07-29T02:59:45;100444.25;;;17.22;95.26
79534;BME280;68982;52.160;6.736;2023-07-29T03:02:11;100439.41;;;17.24;95.13
79534;BME280;68982;52.160;6.736;2023-07-29T03:04:36;100451.06;;;17.36;94.78
79534;BME280;68982;52.160;6.736;2023-07-29T03:07:02;100440.66;;;17.33;94.99
79534;BME280;68982;52.160;6.736;2023-07-29T03:09:28;100442.66;;;17.37;93.96
79534;BME280;68982;52.160;6.736;2023-07-29T03:11:53;100440.31;;;17.29;94.71
79534;BME280;68982;52.160;6.736;2023-07-29T03:14:20;100446.38;;;17.19;96.13
79534;BME280;68982;52.160;6.736;2023-07-29T03:16:46;100452.94;;;17.07;96.10
79534;BME280;68982;52.160;6.736;2023-07-29T03:19:12;100452.34;;;17.16;95.98
79534;BME280;68982;52.160;6.736;2023-07-29T03:21:37;100450.03;;;17.25;94.24
79534;BME280;68982;52.160;6.736;2023-07-29T03:24:03;100445.31;;;17.20;95.99
79534;BME280;68982;52.160;6.736;2023-07-29T03:26:28;100445.28;;;17.32;93.78
79534;BME280;68982;52.160;6.736;2023-07-29T03:28:53;100443.28;;;17.28;94.79
79534;BME280;68982;52.160;6.736;2023-07-29T03:31:19;100444.41;;;17.15;96.12
79534;BME280;68982;52.160;6.736;2023-07-29T03:33:44;100427.59;;;17.06;96.23
79534;BME280;68982;52.160;6.736;2023-07-29T03:36:09;100433.41;;;17.10;95.78
79534;BME280;68982;52.160;6.736;2023-07-29T03:38:35;100425.22;;;17.10;96.52
79534;BME280;68982;52.160;6.736;2023-07-29T03:41:05;100431.97;;;17.07;96.73
79534;BME280;68982;52.160;6.736;2023-07-29T03:43:30;100424.88;;;17.06;97.14
79534;BME280;68982;52.160;6.736;2023-07-29T03:45:55;100432.09;;;17.01;97.45
79534;BME280;68982;52.160;6.736;2023-07-29T03:48:21;100430.47;;;16.99;97.76
79534;BME280;68982;52.160;6.736;2023-07-29T03:50:46;100442.53;;;17.04;97.49
79534;BME280;68982;52.160;6.736;2023-07-29T03:53:11;100426.38;;;17.14;96.33
79534;BME280;68982;52.160;6.736;2023-07-29T03:55:37;100440.25;;;17.12;97.21
79534;BME280;68982;52.160;6.736;2023-07-29T03:58:02;100442.50;;;17.15;96.93
79534;BME280;68982;52.160;6.736;2023-07-29T04:00:28;100432.78;;;17.19;96.22
79534;BME280;68982;52.160;6.736;2023-07-29T04:02:53;100431.38;;;17.17;96.76
79534;BME280;68982;52.160;6.736;2023-07-29T04:05:19;100429.81;;;17.21;96.55
79534;BME280;68982;52.160;6.736;2023-07-29T04:07:45;100433.00;;;17.18;97.45
79534;BME280;68982;52.160;6.736;2023-07-29T04:10:10;100418.56;;;17.17;96.59
79534;BME280;68982;52.160;6.736;2023-07-29T04:12:36;100424.25;;;17.16;97.26
79534;BME280;68982;52.160;6.736;2023-07-29T04:15:02;100432.41;;;17.16;97.22
79534;BME280;68982;52.160;6.736;2023-07-29T04:17:27;100426.22;;;17.32;95.54
79534;BME280;68982;52.160;6.736;2023-07-29T04:19:53;100423.44;;;17.44;95.02
79534;BME280;68982;52.160;6.736;2023-07-29T04:22:18;100415.75;;;17.41;95.01
79534;BME280;68982;52.160;6.736;2023-07-29T04:24:43;100409.06;;;17.20;96.76
79534;BME280;68982;52.160;6.736;2023-07-29T04:27:09;100406.78;;;17.29;95.89
79534;BME280;68982;52.160;6.736;2023-07-29T04:29:34;100413.91;;;17.30;95.70
79534;BME280;68982;52.160;6.736;2023-07-29T04:32:01;100419.00;;;17.26;96.21
79534;BME280;68982;52.160;6.736;2023-07-29T04:34:27;100415.19;;;17.27;96.20
79534;BME280;68982;52.160;6.736;2023-07-29T04:36:52;100425.34;;;17.44;95.16
79534;BME280;68982;52.160;6.736;2023-07-29T04:39:17;100421.19;;;17.41;96.04
79534;BME280;68982;52.160;6.736;2023-07-29T04:41:43;100415.03;;;17.34;96.80
79534;BME280;68982;52.160;6.736;2023-07-29T04:44:09;100417.19;;;17.32;97.32
79534;BME280;68982;52.160;6.736;2023-07-29T04:46:36;100420.84;;;17.37;97.12
79534;BME280;68982;52.160;6.736;2023-07-29T04:49:01;100421.06;;;17.48;96.22
79534;BME280;68982;52.160;6.736;2023-07-29T04:51:28;100421.53;;;17.45;96.51
79534;BME280;68982;52.160;6.736;2023-07-29T04:53:54;100428.72;;;17.51;96.19
79534;BME280;68982;52.160;6.736;2023-07-29T04:56:19;100428.38;;;17.47;96.47
79534;BME280;68982;52.160;6.736;2023-07-29T04:58:44;100436.56;;;17.47;96.42
79534;BME280;68982;52.160;6.736;2023-07-29T05:01:10;100419.97;;;17.49;96.34
79534;BME280;68982;52.160;6.736;2023-07-29T05:03:35;100433.25;;;17.45;96.18
79534;BME280;68982;52.160;6.736;2023-07-29T05:06:02;100419.97;;;17.49;96.40
79534;BME280;68982;52.160;6.736;2023-07-29T05:08:28;100422.53;;;17.55;96.35
79534;BME280;68982;52.160;6.736;2023-07-29T05:10:53;100417.53;;;17.64;92.54
79534;BME280;68982;52.160;6.736;2023-07-29T05:13:20;100405.38;;;17.55;95.97
79534;BME280;68982;52.160;6.736;2023-07-29T05:15:47;100398.09;;;17.60;96.37
79534;BME280;68982;52.160;6.736;2023-07-29T05:18:12;100400.72;;;17.55;95.45
79534;BME280;68982;52.160;6.736;2023-07-29T05:20:37;100410.59;;;17.56;96.63
79534;BME280;68982;52.160;6.736;2023-07-29T05:23:03;100403.63;;;17.49;95.69
79534;BME280;68982;52.160;6.736;2023-07-29T05:25:28;100411.28;;;17.52;96.65
79534;BME280;68982;52.160;6.736;2023-07-29T05:27:54;100411.88;;;17.54;96.43
79534;BME280;68982;52.160;6.736;2023-07-29T05:30:19;100399.69;;;17.56;96.13
79534;BME280;68982;52.160;6.736;2023-07-29T05:32:45;100417.69;;;17.57;94.71
79534;BME280;68982;52.160;6.736;2023-07-29T05:35:10;100428.66;;;17.46;95.74
79534;BME280;68982;52.160;6.736;2023-07-29T05:37:39;100433.84;;;17.47;95.57
79534;BME280;68982;52.160;6.736;2023-07-29T05:40:08;100437.56;;;17.58;95.29
79534;BME280;68982;52.160;6.736;2023-07-29T05:42:36;100438.06;;;17.55;95.34
79534;BME280;68982;52.160;6.736;2023-07-29T05:45:02;100457.53;;;17.47;94.65
79534;BME280;68982;52.160;6.736;2023-07-29T05:47:27;100465.25;;;17.50;93.76
79534;BME280;68982;52.160;6.736;2023-07-29T05:49:53;100459.94;;;17.43;93.88
79534;BME280;68982;52.160;6.736;2023-07-29T05:52:18;100474.03;;;17.40;93.62
79534;BME280;68982;52.160;6.736;2023-07-29T05:54:44;100467.78;;;17.39;92.64
79534;BME280;68982;52.160;6.736;2023-07-29T05:57:10;100464.47;;;17.37;92.23
79534;BME280;68982;52.160;6.736;2023-07-29T05:59:36;100458.03;;;17.44;91.85
79534;BME280;68982;52.160;6.736;2023-07-29T06:02:01;100464.41;;;17.49;91.64
79534;BME280;68982;52.160;6.736;2023-07-29T06:04:26;100456.38;;;17.43;90.72
79534;BME280;68982;52.160;6.736;2023-07-29T06:06:52;100464.91;;;17.46;90.53
79534;BME280;68982;52.160;6.736;2023-07-29T06:09:17;100459.94;;;17.43;90.33
79534;BME280;68982;52.160;6.736;2023-07-29T06:11:43;100467.41;;;17.48;89.61
79534;BME280;68982;52.160;6.736;2023-07-29T06:14:08;100474.47;;;17.49;89.92
79534;BME280;68982;52.160;6.736;2023-07-29T06:16:35;100471.75;;;17.49;89.43
79534;BME280;68982;52.160;6.736;2023-07-29T06:19:00;100477.28;;;17.54;89.38
79534;BME280;68982;52.160;6.736;2023-07-29T06:21:26;100476.00;;;17.56;89.74
79534;BME280;68982;52.160;6.736;2023-07-29T06:23:51;100478.75;;;17.56;89.39
79534;BME280;68982;52.160;6.736;2023-07-29T06:26:16;100480.03;;;17.54;89.04
79534;BME280;68982;52.160;6.736;2023-07-29T06:28:42;100487.81;;;17.62;88.58
79534;BME280;68982;52.160;6.736;2023-07-29T06:31:07;100483.09;;;17.57;89.08
79534;BME280;68982;52.160;6.736;2023-07-29T06:33:32;100490.59;;;17.50;87.94
79534;BME280;68982;52.160;6.736;2023-07-29T06:35:58;100501.97;;;17.47;88.22
79534;BME280;68982;52.160;6.736;2023-07-29T06:38:23;100478.44;;;17.41;87.29
79534;BME280;68982;52.160;6.736;2023-07-29T06:40:48;100498.66;;;17.45;87.60
79534;BME280;68982;52.160;6.736;2023-07-29T06:43:14;100498.09;;;17.43;87.39
79534;BME280;68982;52.160;6.736;2023-07-29T06:45:39;100497.50;;;17.41;87.17
79534;BME280;68982;52.160;6.736;2023-07-29T06:48:05;100490.63;;;17.38;86.24
79534;BME280;68982;52.160;6.736;2023-07-29T06:50:30;100500.25;;;17.41;87.02
79534;BME280;68982;52.160;6.736;2023-07-29T06:52:56;100483.63;;;17.43;87.00
79534;BME280;68982;52.160;6.736;2023-07-29T06:55:21;100496.88;;;17.51;86.11
79534;BME280;68982;52.160;6.736;2023-07-29T06:57:46;100488.13;;;17.49;85.27
79534;BME280;68982;52.160;6.736;2023-07-29T07:00:12;100496.50;;;17.59;86.63
79534;BME280;68982;52.160;6.736;2023-07-29T07:02:37;100488.66;;;17.63;85.87
79534;BME280;68982;52.160;6.736;2023-07-29T07:05:03;100503.00;;;17.58;85.37
79534;BME280;68982;52.160;6.736;2023-07-29T07:07:28;100501.59;;;17.55;85.26
79534;BME280;68982;52.160;6.736;2023-07-29T07:09:53;100505.16;;;17.56;85.50
79534;BME280;68982;52.160;6.736;2023-07-29T07:12:19;100502.78;;;17.59;85.95
79534;BME280;68982;52.160;6.736;2023-07-29T07:14:44;100505.28;;;17.61;85.38
79534;BME280;68982;52.160;6.736;2023-07-29T07:17:10;100504.84;;;17.69;85.13
79534;BME280;68982;52.160;6.736;2023-07-29T07:19:35;100507.72;;;17.63;84.60
79534;BME280;68982;52.160;6.736;2023-07-29T07:22:01;100513.38;;;17.73;85.25
79534;BME280;68982;52.160;6.736;2023-07-29T07:24:26;100509.34;;;17.75;84.33
79534;BME280;68982;52.160;6.736;2023-07-29T07:26:51;100510.50;;;17.79;84.72
79534;BME280;68982;52.160;6.736;2023-07-29T07:29:16;100513.22;;;17.91;84.86
79534;BME280;68982;52.160;6.736;2023-07-29T07:31:50;100504.88;;;17.98;83.54
79534;BME280;68982;52.160;6.736;2023-07-29T07:34:16;100495.31;;;18.12;83.40
79534;BME280;68982;52.160;6.736;2023-07-29T07:36:41;100496.63;;;18.10;84.24
79534;BME280;68982;52.160;6.736;2023-07-29T07:39:07;100493.06;;;18.09;85.01
79534;BME280;68982;52.160;6.736;2023-07-29T07:41:32;100495.47;;;18.22;83.23
79534;BME280;68982;52.160;6.736;2023-07-29T07:43:57;100495.47;;;18.39;84.36
79534;BME280;68982;52.160;6.736;2023-07-29T07:46:23;100499.03;;;18.40;82.29
79534;BME280;68982;52.160;6.736;2023-07-29T07:48:48;100502.56;;;18.40;84.14
79534;BME280;68982;52.160;6.736;2023-07-29T07:51:13;100500.19;;;18.61;83.29
79534;BME280;68982;52.160;6.736;2023-07-29T07:53:39;100502.22;;;18.71;81.84
79534;BME280;68982;52.160;6.736;2023-07-29T07:56:06;100502.72;;;18.84;81.99
79534;BME280;68982;52.160;6.736;2023-07-29T07:58:32;100508.53;;;18.88;81.26
79534;BME280;68982;52.160;6.736;2023-07-29T08:01:07;100505.44;;;19.01;80.55
79534;BME280;68982;52.160;6.736;2023-07-29T08:03:34;100501.41;;;19.09;80.26
79534;BME280;68982;52.160;6.736;2023-07-29T08:06:00;100499.50;;;19.10;81.70
79534;BME280;68982;52.160;6.736;2023-07-29T08:08:26;100509.03;;;19.07;80.67
79534;BME280;68982;52.160;6.736;2023-07-29T08:10:56;100504.28;;;18.97;78.02
79534;BME280;68982;52.160;6.736;2023-07-29T08:13:22;100503.34;;;19.09;79.74
79534;BME280;68982;52.160;6.736;2023-07-29T08:15:49;100497.34;;;19.12;79.58
79534;BME280;68982;52.160;6.736;2023-07-29T08:18:16;100493.63;;;19.18;78.34
79534;BME280;68982;52.160;6.736;2023-07-29T08:20:41;100505.50;;;19.29;78.73
79534;BME280;68982;52.160;6.736;2023-07-29T08:23:07;100500.16;;;19.39;79.79
79534;BME280;68982;52.160;6.736;2023-07-29T08:25:32;100510.41;;;19.26;80.19
79534;BME280;68982;52.160;6.736;2023-07-29T08:27:57;100509.44;;;19.38;78.16
79534;BME280;68982;52.160;6.736;2023-07-29T08:30:23;100503.00;;;19.49;78.78
79534;BME280;68982;52.160;6.736;2023-07-29T08:32:48;100502.69;;;19.67;78.57
79534;BME280;68982;52.160;6.736;2023-07-29T08:35:13;100516.94;;;19.70;76.09
79534;BME280;68982;52.160;6.736;2023-07-29T08:37:39;100509.38;;;19.77;76.28
79534;BME280;68982;52.160;6.736;2023-07-29T08:40:05;100511.34;;;19.81;76.76
79534;BME280;68982;52.160;6.736;2023-07-29T08:42:31;100515.13;;;19.80;75.41
79534;BME280;68982;52.160;6.736;2023-07-29T08:45:01;100502.03;;;19.60;75.92
79534;BME280;68982;52.160;6.736;2023-07-29T08:47:31;100504.78;;;19.60;77.61
79534;BME280;68982;52.160;6.736;2023-07-29T08:49:58;100504.53;;;19.62;77.11
79534;BME280;68982;52.160;6.736;2023-07-29T08:52:24;100492.44;;;19.80;76.47
79534;BME280;68982;52.160;6.736;2023-07-29T08:54:50;100487.91;;;19.91;76.96
79534;BME280;68982;52.160;6.736;2023-07-29T08:57:18;100485.66;;;20.15;76.14
79534;BME280;68982;52.160;6.736;2023-07-29T08:59:44;100487.16;;;20.33;75.57
79534;BME280;68982;52.160;6.736;2023-07-29T09:02:09;100507.97;;;20.34;74.05
79534;BME280;68982;52.160;6.736;2023-07-29T09:04:35;100503.81;;;20.26;73.81
79534;BME280;68982;52.160;6.736;2023-07-29T09:07:00;100502.00;;;20.37;74.07
79534;BME280;68982;52.160;6.736;2023-07-29T09:09:26;100516.16;;;20.28;74.98
79534;BME280;68982;52.160;6.736;2023-07-29T09:11:51;100511.94;;;20.48;74.19
79534;BME280;68982;52.160;6.736;2023-07-29T09:14:17;100507.16;;;20.33;73.14
79534;BME280;68982;52.160;6.736;2023-07-29T09:16:45;100513.84;;;20.15;74.18
79534;BME280;68982;52.160;6.736;2023-07-29T09:19:11;100517.44;;;20.21;73.13
79534;BME280;68982;52.160;6.736;2023-07-29T09:21:39;100511.63;;;20.12;73.71
79534;BME280;68982;52.160;6.736;2023-07-29T09:24:05;100513.66;;;19.95;74.26
79534;BME280;68982;52.160;6.736;2023-07-29T09:26:30;100520.88;;;20.06;75.62
79534;BME280;68982;52.160;6.736;2023-07-29T09:28:57;100528.88;;;20.13;73.68
79534;BME280;68982;52.160;6.736;2023-07-29T09:31:28;100528.97;;;19.96;75.17
79534;BME280;68982;52.160;6.736;2023-07-29T09:34:02;100523.91;;;19.82;75.33
79534;BME280;68982;52.160;6.736;2023-07-29T09:36:30;100516.47;;;19.78;75.18
79534;BME280;68982;52.160;6.736;2023-07-29T09:38:56;100515.50;;;19.67;76.21
79534;BME280;68982;52.160;6.736;2023-07-29T09:41:31;100522.56;;;19.63;76.46
79534;BME280;68982;52.160;6.736;2023-07-29T09:43:58;100525.00;;;19.59;75.14
79534;BME280;68982;52.160;6.736;2023-07-29T09:46:23;100534.44;;;19.46;77.15
79534;BME280;68982;52.160;6.736;2023-07-29T09:48:53;100527.63;;;19.71;75.17
79534;BME280;68982;52.160;6.736;2023-07-29T09:51:19;100536.97;;;19.75;74.43
79534;BME280;68982;52.160;6.736;2023-07-29T09:53:46;100542.22;;;19.77;74.74
79534;BME280;68982;52.160;6.736;2023-07-29T09:56:12;100549.31;;;19.56;75.29
79534;BME280;68982;52.160;6.736;2023-07-29T09:58:38;100542.78;;;19.35;75.79
79534;BME280;68982;52.160;6.736;2023-07-29T10:01:07;100534.38;;;19.41;75.90
79534;BME280;68982;52.160;6.736;2023-07-29T10:03:34;100535.50;;;19.67;75.68
79534;BME280;68982;52.160;6.736;2023-07-29T10:06:03;100531.75;;;19.74;76.04
79534;BME280;68982;52.160;6.736;2023-07-29T10:08:33;100539.06;;;20.17;75.84
79534;BME280;68982;52.160;6.736;2023-07-29T10:11:11;100541.41;;;20.36;73.39
79534;BME280;68982;52.160;6.736;2023-07-29T10:13:37;100540.03;;;20.38;73.80
79534;BME280;68982;52.160;6.736;2023-07-29T10:16:03;100531.28;;;20.68;73.46
79534;BME280;68982;52.160;6.736;2023-07-29T10:18:30;100537.44;;;20.86;72.68
79534;BME280;68982;52.160;6.736;2023-07-29T10:20:57;100527.72;;;20.68;73.94
79534;BME280;68982;52.160;6.736;2023-07-29T10:23:25;100521.81;;;20.54;72.61
79534;BME280;68982;52.160;6.736;2023-07-29T10:26:05;100521.09;;;20.59;74.79
79534;BME280;68982;52.160;6.736;2023-07-29T10:28:31;100520.41;;;20.46;73.62
79534;BME280;68982;52.160;6.736;2023-07-29T10:30:57;100524.56;;;20.54;73.84
79534;BME280;68982;52.160;6.736;2023-07-29T10:33:23;100523.47;;;20.55;73.57
79534;BME280;68982;52.160;6.736;2023-07-29T10:35:49;100530.03;;;20.54;72.38
79534;BME280;68982;52.160;6.736;2023-07-29T10:38:15;100518.38;;;20.64;72.01
79534;BME280;68982;52.160;6.736;2023-07-29T10:40:51;100526.03;;;21.04;70.31
79534;BME280;68982;52.160;6.736;2023-07-29T10:43:38;100521.44;;;21.20;70.54
79534;BME280;68982;52.160;6.736;2023-07-29T10:46:20;100522.41;;;21.46;71.08
79534;BME280;68982;52.160;6.736;2023-07-29T10:48:56;100522.47;;;21.62;70.69
79534;BME280;68982;52.160;6.736;2023-07-29T10:51:34;100516.28;;;21.34;70.65
79534;BME280;68982;52.160;6.736;2023-07-29T10:54:18;100525.19;;;21.04;71.48
79534;BME280;68982;52.160;6.736;2023-07-29T10:56:48;100518.47;;;21.32;71.59
79534;BME280;68982;52.160;6.736;2023-07-29T11:01:50;100509.84;;;21.66;66.68
79534;BME280;68982;52.160;6.736;2023-07-29T11:17:32;100504.16;;;22.13;66.96
79534;BME280;68982;52.160;6.736;2023-07-29T11:20:00;100505.41;;;21.49;67.88
79534;BME280;68982;52.160;6.736;2023-07-29T11:22:26;100497.75;;;21.62;66.94
79534;BME280;68982;52.160;6.736;2023-07-29T11:24:51;100501.88;;;21.64;65.93
79534;BME280;68982;52.160;6.736;2023-07-29T11:27:16;100505.19;;;21.61;66.60
79534;BME280;68982;52.160;6.736;2023-07-29T11:29:42;100510.91;;;21.55;66.55
79534;BME280;68982;52.160;6.736;2023-07-29T11:32:09;100509.50;;;21.42;67.24
79534;BME280;68982;52.160;6.736;2023-07-29T11:34:34;100502.00;;;21.27;66.71
79534;BME280;68982;52.160;6.736;2023-07-29T11:37:00;100517.31;;;21.18;67.71
79534;BME280;68982;52.160;6.736;2023-07-29T11:39:25;100506.81;;;20.99;68.60
79534;BME280;68982;52.160;6.736;2023-07-29T11:41:50;100509.25;;;20.96;68.85
79534;BME280;68982;52.160;6.736;2023-07-29T11:44:19;100514.00;;;21.10;69.72
79534;BME280;68982;52.160;6.736;2023-07-29T11:46:44;100505.53;;;21.17;69.97
79534;BME280;68982;52.160;6.736;2023-07-29T11:49:10;100508.59;;;21.36;69.99
79534;BME280;68982;52.160;6.736;2023-07-29T11:51:38;100500.47;;;21.41;68.84
79534;BME280;68982;52.160;6.736;2023-07-29T11:54:04;100504.94;;;21.73;69.87
79534;BME280;68982;52.160;6.736;2023-07-29T11:56:30;100510.97;;;21.75;67.68
79534;BME280;68982;52.160;6.736;2023-07-29T11:58:56;100503.78;;;21.53;69.50
79534;BME280;68982;52.160;6.736;2023-07-29T12:01:22;100496.00;;;21.40;68.23
79534;BME280;68982;52.160;6.736;2023-07-29T12:03:48;100499.88;;;21.39;68.09
79534;BME280;68982;52.160;6.736;2023-07-29T12:06:15;100499.34;;;21.42;68.13
79534;BME280;68982;52.160;6.736;2023-07-29T12:08:41;100507.78;;;21.30;68.08
79534;BME280;68982;52.160;6.736;2023-07-29T12:11:08;100497.16;;;21.44;67.37
79534;BME280;68982;52.160;6.736;2023-07-29T12:13:33;100495.63;;;21.84;67.25
79534;BME280;68982;52.160;6.736;2023-07-29T12:16:03;100494.50;;;21.80;66.15
79534;BME280;68982;52.160;6.736;2023-07-29T12:18:32;100492.03;;;21.68;67.23
79534;BME280;68982;52.160;6.736;2023-07-29T12:20:58;100493.84;;;21.42;67.73
79534;BME280;68982;52.160;6.736;2023-07-29T12:23:26;100504.75;;;21.27;69.63
79534;BME280;68982;52.160;6.736;2023-07-29T12:25:57;100499.25;;;21.22;69.45
79534;BME280;68982;52.160;6.736;2023-07-29T12:28:23;100493.19;;;21.15;69.07
79534;BME280;68982;52.160;6.736;2023-07-29T12:30:53;100495.88;;;21.09;70.03
79534;BME280;68982;52.160;6.736;2023-07-29T12:33:32;100500.25;;;21.05;69.57
79534;BME280;68982;52.160;6.736;2023-07-29T12:35:58;100494.72;;;20.95;68.67
79534;BME280;68982;52.160;6.736;2023-07-29T12:38:27;100499.06;;;20.86;69.75
79534;BME280;68982;52.160;6.736;2023-07-29T12:40:52;100499.91;;;20.91;69.42
79534;BME280;68982;52.160;6.736;2023-07-29T12:43:18;100502.38;;;20.88;70.70
79534;BME280;68982;52.160;6.736;2023-07-29T12:45:43;100504.53;;;20.86;70.95
79534;BME280;68982;52.160;6.736;2023-07-29T12:48:10;100507.22;;;20.81;69.93
79534;BME280;68982;52.160;6.736;2023-07-29T12:50:36;100518.44;;;20.74;70.44
79534;BME280;68982;52.160;6.736;2023-07-29T12:53:01;100517.59;;;20.68;71.17
79534;BME280;68982;52.160;6.736;2023-07-29T12:55:27;100507.66;;;20.62;70.76
79534;BME280;68982;52.160;6.736;2023-07-29T12:57:52;100511.94;;;20.48;71.35
79534;BME280;68982;52.160;6.736;2023-07-29T13:00:18;100509.91;;;20.38;71.54
79534;BME280;68982;52.160;6.736;2023-07-29T13:02:43;100518.34;;;20.32;73.10
79534;BME280;68982;52.160;6.736;2023-07-29T13:05:10;100510.91;;;20.22;74.84
79534;BME280;68982;52.160;6.736;2023-07-29T13:07:37;100518.66;;;20.03;76.80
79534;BME280;68982;52.160;6.736;2023-07-29T13:10:03;100526.09;;;19.80;78.03